• Join FlightAware (Why Join?)
  • Login
  • US Flag 
04:35PM EDT


 

Airport Tracker/Info


-or-


 

Live Flight TrackerFlight Track Log ✈ EJA727 ✈ 28-Apr-2013 ✈ KTEB - KAUS

Flight Track Log - Related Links

Times and Time Zones

All times are in EDT time to prevent confusion due to time zone crossing. See the EJA727 flight status page for this flight to view local times or setup timezone preferences in your user account.

Time Position Orientation Groundspeed Altitude Reporting Facility
EDT Latitude Longitude Course Direction KTS MPH feet Rate Location/Type
06:10PM 40.8333 -74.0833 252° West 174 200 1,000  Level New York TRACON
06:11PM 40.8167 -74.1500 252° West 198 228 1,500 1,500 Climbing New York TRACON
06:12PM 40.8167 -74.2333 270° West 218 251 4,000 3,180 Climbing New York TRACON
06:15PM 40.7972 -74.4772 264° West 303 349 12,500 3,240 Climbing New York Center
06:16PM 40.7747 -74.5908 255° West 345 397 15,300 2,820 Climbing New York Center
06:17PM 40.7469 -74.7428 256° West 383 441 18,300 2,820 Climbing New York Center
06:18PM 40.7192 -74.8808 255° West 391 450 21,200 2,580 Climbing New York Center
06:19PM 40.6936 -75.0161 256° West 391 450 23,500 2,100 Climbing New York Center
06:20PM 40.6511 -75.1531 248° West 397 457 25,400 1,620 Climbing New York Center
06:21PM 40.5900 -75.2831 238° Southwest 408 470 26,800 1,260 Climbing New York Center
06:22PM 40.5308 -75.4103 239° Southwest 419 482 28,000 1,200 Climbing New York Center
06:23PM 40.4714 -75.5453 240° Southwest 424 488 29,200 1,200 Climbing New York Center
06:24PM 40.4164 -75.6642 239° Southwest 424 488 30,400 1,200 Climbing New York Center
06:25PM 40.3589 -75.7908 239° Southwest 424 488 31,600 1,140 Climbing New York Center
06:26PM 40.2931 -75.9194 236° Southwest 419 482 32,800 1,200 Climbing New York Center
06:27PM 40.2356 -76.0403 238° Southwest 419 482 34,000 1,020 Climbing New York Center
06:28PM 40.1689 -76.1792 238° Southwest 412 474 34,900 1,140 Climbing New York Center
06:29PM 40.1222 -76.2842 240° Southwest 405 466 36,400 1,320 Climbing New York Center
06:30PM 40.0686 -76.4019 239° Southwest 394 453 37,600 480 Climbing New York Center
06:32PM 39.9442 -76.6658 238° Southwest 387 445 38,000 120 Climbing Washington Center
06:33PM 39.8869 -76.7811 237° Southwest 387 445 38,000  Level Washington Center
06:34PM 39.8444 -76.8778 240° Southwest 382 440 38,000  Level Washington Center
06:35PM 39.7761 -77.0169 237° Southwest 388 447 38,000  Level Washington Center
06:36PM 39.7225 -77.1372 240° Southwest 388 447 38,000  Level Washington Center
06:37PM 39.6667 -77.2575 239° Southwest 383 441 38,000  Level Washington Center
06:38PM 39.6108 -77.3747 238° Southwest 383 441 38,000  Level Washington Center
06:39PM 39.5550 -77.4917 238° Southwest 383 441 38,000  Level Washington Center
06:40PM 39.4989 -77.6114 239° Southwest 383 441 38,000  Level Washington Center
06:41PM 39.4425 -77.7306 239° Southwest 383 441 38,000  Level Washington Center
06:42PM 39.3842 -77.8497 238° Southwest 388 447 38,000  Level Washington Center
06:43PM 39.3358 -77.9717 243° Southwest 383 441 38,000  Level Washington Center
06:44PM 39.2856 -78.0933 242° Southwest 383 441 38,000  Level Washington Center
06:45PM 39.2433 -78.2100 245° Southwest 388 447 38,000  Level Washington Center
06:46PM 39.1950 -78.3286 242° Southwest 388 447 38,000  Level Washington Center
06:47PM 39.1442 -78.4525 242° Southwest 388 447 38,000  Level Washington Center
06:48PM 39.0953 -78.5764 243° Southwest 388 447 38,000  Level Washington Center
06:49PM 39.0442 -78.6972 241° Southwest 388 447 38,000  Level Washington Center
06:50PM 38.9953 -78.8208 243° Southwest 388 447 38,000  Level Washington Center
06:51PM 38.9461 -78.9414 242° Southwest 388 447 38,000  Level Washington Center
06:52PM 38.8967 -79.0617 242° Southwest 383 441 38,000  Level Washington Center
06:53PM 38.8494 -79.1847 244° Southwest 388 447 38,000  Level Washington Center
06:54PM 38.8203 -79.3139 254° West 383 441 38,000 240 Level Washington Center
06:55PM 38.7956 -79.4406 256° West 378 435 38,600 780 Climbing Washington Center
06:56PM 38.7594 -79.5853 252° West 378 435 39,600 660 Climbing Washington Center
06:57PM 38.7261 -79.7111 251° West 378 435 40,000 180 Climbing Washington Center
06:58PM 38.6969 -79.8319 253° West 378 435 40,000  Level Washington Center
06:59PM 38.6608 -79.9628 251° West 383 441 40,000  Level Washington Center
07:00PM 38.6083 -80.1556 251° West 397 457 40,000  Level Indianapolis Center
07:01PM 38.5717 -80.2953 251° West 397 457 40,000  Level Indianapolis Center
07:02PM 38.5306 -80.4514 251° West 400 460 40,000  Level Indianapolis Center
07:03PM 38.4944 -80.5864 251° West 401 461 40,000  Level Indianapolis Center
07:04PM 38.4589 -80.7192 251° West 396 456 40,000  Level Indianapolis Center
07:05PM 38.4242 -80.8506 251° West 391 450 40,000  Level Indianapolis Center
07:06PM 38.3886 -80.9828 251° West 392 451 40,000  Level Indianapolis Center
07:07PM 38.3528 -81.1136 251° West 390 449 40,000  Level Indianapolis Center
07:09PM 38.3167 -81.2467 251° West 393 452 40,000  Level Indianapolis Center
07:10PM 38.2736 -81.4053 251° West 392 451 40,000  Level Indianapolis Center
07:11PM 38.2367 -81.5356 250° West 390 449 40,000 240 Level Indianapolis Center
07:12PM 38.2000 -81.6694 251° West 396 456 40,500 480 Climbing Indianapolis Center
07:13PM 38.1633 -81.8008 250° West 394 453 41,000 240 Climbing Indianapolis Center
07:14PM 38.1264 -81.9347 251° West 399 459 41,000  Level Indianapolis Center
07:15PM 38.0881 -82.0717 250° West 408 470 41,000  Level Indianapolis Center
07:16PM 38.0475 -82.2125 250° West 402 463 41,000  Level Indianapolis Center
07:17PM 38.0114 -82.3464 251° West 402 463 41,000  Level Indianapolis Center
07:18PM 37.9661 -82.5008 250° West 403 464 41,000  Level Indianapolis Center
07:19PM 37.9281 -82.6331 250° West 401 461 41,000  Level Indianapolis Center
07:20PM 37.8908 -82.7667 251° West 402 463 41,000  Level Indianapolis Center
07:21PM 37.8519 -82.8997 250° West 404 465 41,000  Level Indianapolis Center
07:22PM 37.8128 -83.0328 250° West 405 466 41,000  Level Indianapolis Center
07:23PM 37.7678 -83.1861 250° West 401 461 41,000  Level Indianapolis Center
07:24PM 37.7286 -83.3200 250° West 406 467 41,000  Level Indianapolis Center
07:25PM 37.6894 -83.4531 250° West 404 465 41,000  Level Indianapolis Center
07:26PM 37.6497 -83.5878 250° West 409 471 41,000  Level Indianapolis Center
07:27PM 37.6092 -83.7208 249° West 409 471 41,000  Level Indianapolis Center
07:28PM 37.5692 -83.8542 249° West 407 468 41,000  Level Indianapolis Center
07:29PM 37.5222 -84.0100 249° West 409 471 41,000  Level Indianapolis Center
07:30PM 37.4814 -84.1428 249° West 407 468 41,000  Level Indianapolis Center
07:31PM 37.4431 -84.2747 250° West 405 466 41,000  Level Indianapolis Center
07:32PM 37.4022 -84.4058 249° West 403 464 41,000  Level Indianapolis Center
07:33PM 37.3608 -84.5386 249° West 404 465 41,000  Level Indianapolis Center
07:34PM 37.3131 -84.6947 249° West 410 472 41,000  Level Indianapolis Center
07:35PM 37.2697 -84.8297 248° West 414 476 41,000  Level Indianapolis Center
07:36PM 37.2292 -84.9644 249° West 413 475 41,000  Level Indianapolis Center
07:37PM 37.1853 -85.0978 248° West 413 475 41,000  Level Indianapolis Center
07:38PM 37.1439 -85.2308 249° West 411 473 41,000  Level Indianapolis Center
07:39PM 37.1025 -85.3639 249° West 411 473 41,000  Level Indianapolis Center
07:41PM 37.0586 -85.4983 248° West 414 476 41,000  Level Indianapolis Center
07:42PM 37.0142 -85.6400 249° West 413 475 41,000  Level Indianapolis Center
07:43PM 36.9694 -85.7764 248° West 419 482 41,000  Level Indianapolis Center
07:44PM 36.9203 -85.9319 248° West 410 472 41,000  Level Indianapolis Center
07:45PM 36.8744 -86.0725 248° West 417 480 41,000  Level Memphis Center
07:46PM 36.8333 -86.2094 249° West 423 487 41,000  Level Memphis Center
07:47PM 36.7875 -86.3389 246° West 418 481 41,000  Level Memphis Center
07:48PM 36.7458 -86.4703 248° West 418 481 41,000  Level Memphis Center
07:49PM 36.7022 -86.6044 248° West 423 487 41,000  Level Memphis Center
07:50PM 36.6603 -86.7358 248° West 423 487 41,000  Level Memphis Center
07:51PM 36.6161 -86.8694 248° West 423 487 41,000  Level Memphis Center
07:52PM 36.5717 -87.0006 247° West 423 487 41,000  Level Memphis Center
07:53PM 36.5253 -87.1342 247° West 423 487 41,000  Level Memphis Center
07:54PM 36.4806 -87.2678 247° West 423 487 41,000  Level Memphis Center
07:55PM 36.4358 -87.3983 247° West 423 487 41,000  Level Memphis Center
07:56PM 36.3911 -87.5289 247° West 418 481 41,000  Level Memphis Center
07:57PM 36.3461 -87.6594 247° West 415 478 41,000  Level Memphis Center
07:58PM 36.3008 -87.7894 247° West 415 478 41,000  Level Memphis Center
07:59PM 36.2594 -87.9067 246° West 421 484 41,000  Level Memphis Center
08:00PM 36.2139 -88.0392 247° West 421 484 41,000  Level Memphis Center
08:01PM 36.1664 -88.1769 247° West 414 476 41,000  Level Memphis Center
08:02PM 36.1208 -88.3092 247° West 409 471 41,000  Level Memphis Center
08:03PM 36.0728 -88.4414 246° West 415 478 41,000  Level Memphis Center
08:04PM 36.0269 -88.5733 247° West 420 483 41,000  Level Memphis Center
08:05PM 35.9786 -88.7078 246° West 425 489 41,000  Level Memphis Center
08:06PM 35.9303 -88.8369 245° Southwest 420 483 41,000  Level Memphis Center
08:07PM 35.8819 -88.9711 246° West 420 483 41,000  Level Memphis Center
08:08PM 35.8353 -89.1022 246° West 420 483 41,000  Level Memphis Center
08:09PM 35.7864 -89.2361 246° West 420 483 41,000  Level Memphis Center
08:10PM 35.7397 -89.3672 246° West 420 483 41,000  Level Memphis Center
08:11PM 35.6906 -89.5008 246° West 420 483 41,000  Level Memphis Center
08:12PM 35.6517 -89.6289 250° West 413 475 41,000  Level Memphis Center
08:13PM 35.6025 -89.7619 246° West 419 482 41,000  Level Memphis Center
08:14PM 35.5550 -89.8925 246° West 419 482 41,000  Level Memphis Center
08:15PM 35.5056 -90.0256 245° Southwest 424 488 41,000  Level Memphis Center
08:16PM 35.4556 -90.1583 245° Southwest 424 488 41,000  Level Memphis Center
08:17PM 35.4078 -90.2883 246° West 424 488 41,000  Level Memphis Center
08:18PM 35.3600 -90.4181 246° West 424 488 41,000  Level Memphis Center
08:19PM 35.3117 -90.5506 246° West 424 488 41,000  Level Memphis Center
08:20PM 35.2594 -90.6775 243° Southwest 424 488 41,000  Level Memphis Center
08:21PM 35.2131 -90.8094 247° West 419 482 41,000  Level Memphis Center
08:22PM 35.1647 -90.9336 245° Southwest 419 482 41,000  Level Memphis Center
08:23PM 35.1158 -91.0603 245° Southwest 419 482 41,000  Level Memphis Center
08:24PM 35.0672 -91.1917 246° West 424 488 41,000  Level Memphis Center
08:25PM 35.0225 -91.3056 244° Southwest 424 488 41,000  Level Memphis Center
08:26PM 34.9672 -91.4442 244° Southwest 418 481 41,000  Level Memphis Center
08:27PM 34.9181 -91.5703 245° Southwest 418 481 41,000  Level Memphis Center
08:28PM 34.8731 -91.6911 246° West 429 494 41,000  Level Memphis Center
08:29PM 34.8150 -91.8292 243° Southwest 424 488 41,000  Level Memphis Center
08:30PM 34.7636 -91.9547 244° Southwest 418 481 41,000  Level Memphis Center
08:31PM 34.7161 -92.0778 245° Southwest 418 481 41,000  Level Memphis Center
08:32PM 34.6619 -92.2078 243° Southwest 423 487 41,000  Level Memphis Center
08:33PM 34.5914 -92.3200 233° Southwest 423 487 41,000  Level Memphis Center
08:34PM 34.5228 -92.4367 235° Southwest 429 494 41,000  Level Memphis Center
08:35PM 34.4519 -92.5508 233° Southwest 424 488 41,000  Level Memphis Center
08:36PM 34.3831 -92.6650 234° Southwest 424 488 41,000  Level Memphis Center
08:37PM 34.3183 -92.7839 237° Southwest 429 494 41,000  Level Memphis Center
08:38PM 34.2472 -92.8975 233° Southwest 429 494 41,000  Level Memphis Center
08:40PM 34.0847 -93.1631 234° Southwest 429 494 41,000  Level Fort Worth Center
08:41PM 34.0114 -93.2769 232° Southwest 429 494 41,000  Level Fort Worth Center
08:42PM 33.9419 -93.3903 234° Southwest 429 494 41,000  Level Fort Worth Center
08:43PM 33.8706 -93.5061 233° Southwest 429 494 41,000  Level Fort Worth Center
08:44PM 33.8008 -93.6167 233° Southwest 429 494 41,000  Level Fort Worth Center
08:45PM 33.7292 -93.7322 233° Southwest 429 494 41,000  Level Fort Worth Center
08:46PM 33.6594 -93.8450 233° Southwest 429 494 41,000  Level Fort Worth Center
08:47PM 33.5917 -93.9575 234° Southwest 429 494 41,000  Level Fort Worth Center
08:48PM 33.5194 -94.0722 233° Southwest 429 494 41,000  Level Fort Worth Center
08:49PM 33.4517 -94.1919 236° Southwest 429 494 41,000  Level Fort Worth Center
08:50PM 33.3836 -94.3089 235° Southwest 434 499 41,000  Level Fort Worth Center
08:51PM 33.3178 -94.4256 236° Southwest 434 499 41,000  Level Fort Worth Center
08:52PM 33.2536 -94.5419 237° Southwest 434 499 41,000  Level Fort Worth Center
08:53PM 33.1872 -94.6558 235° Southwest 428 493 41,000  Level Fort Worth Center
08:54PM 33.1208 -94.7744 236° Southwest 433 498 41,000  Level Fort Worth Center
08:55PM 33.0525 -94.8928 235° Southwest 433 498 41,000  Level Fort Worth Center
08:56PM 32.9836 -95.0111 235° Southwest 433 498 41,000  Level Fort Worth Center
08:57PM 32.9169 -95.1292 236° Southwest 433 498 41,000  Level Fort Worth Center
08:58PM 32.8503 -95.2447 236° Southwest 433 498 41,000  Level Fort Worth Center
08:59PM 32.7894 -95.3600 238° Southwest 416 479 41,000  Level Fort Worth Center
09:00PM 32.7183 -95.4800 235° Southwest 429 494 41,000  Level Fort Worth Center
09:01PM 32.6594 -95.5850 236° Southwest 434 499 41,000  Level Fort Worth Center
09:02PM 32.5922 -95.7047 236° Southwest 434 499 41,000  Level Fort Worth Center
09:03PM 32.5247 -95.8192 235° Southwest 434 499 41,000  Level Fort Worth Center
09:04PM 32.4553 -95.9361 235° Southwest 434 499 41,000  Level Fort Worth Center
09:05PM 32.3856 -96.0506 234° Southwest 434 499 41,000  Level Fort Worth Center
09:06PM 32.3117 -96.1769 235° Southwest 434 499 41,000  Level Fort Worth Center
09:07PM 32.2417 -96.2908 234° Southwest 432 497 41,000  Level Fort Worth Center
09:08PM 32.1739 -96.4072 235° Southwest 432 497 41,000  Level Fort Worth Center
09:09PM 32.1078 -96.5231 236° Southwest 432 497 41,000 -480 Level Fort Worth Center
09:10PM 32.0333 -96.6317 231° Southwest 432 497 40,100 -1,740 Descending Fort Worth Center
09:11PM 31.9358 -96.7108 215° Southwest 427 491 37,600 -2,460 Descending Fort Worth Center
09:13PM 31.6986 -96.8708 210° Southwest 458 527 32,400 -2,400 Descending Houston Center
09:14PM 31.5872 -96.9481 211° Southwest 462 532 29,900 -2,400 Descending Houston Center
09:15PM 31.4767 -97.0250 211° Southwest 457 526 27,500 -2,400 Descending Houston Center
09:16PM 31.3675 -97.1000 210° Southwest 452 520 25,100 -2,280 Descending Houston Center
09:17PM 31.2625 -97.1719 210° Southwest 438 504 22,900 -1,560 Descending Houston Center
09:18PM 31.1544 -97.2300 205° Southwest 432 497 22,000 -1,620 Descending Houston Center
09:19PM 31.0425 -97.2733 198° South 424 488 19,700 -2,940 Descending Houston Center
09:20PM 30.9286 -97.3161 198° South 410 472 16,100 -3,060 Descending Houston Center
09:21PM 30.8242 -97.3581 199° South 373 429 13,500 -2,400 Descending Houston Center
09:22PM 30.7419 -97.3958 202° Southwest 319 367 11,300 -2,040 Descending Houston Center
09:23PM 30.6656 -97.4425 208° Southwest 307 353 9,400 -1,860 Descending Houston Center
09:24PM 30.5897 -97.4903 208° Southwest 306 352 7,600 -1,800 Descending Houston Center
09:25PM 30.5186 -97.5336 208° Southwest 293 337 5,800 -1,620 Descending Houston Center
09:26PM 30.4539 -97.5708 206° Southwest 266 306 4,400 -1,380 Descending Houston Center
09:28PM 30.3961 -97.6067 208° Southwest 242 278 3,100 -900 Descending Houston Center
09:29PM 30.3411 -97.6419 209° Southwest 228 262 2,600 -540 Descending Houston Center
09:30PM 30.2925 -97.6628 200° South 198 228 2,100 -600 Descending Houston Center
09:31PM 30.2497 -97.6586 175° South 166 191 1,400 -600 Descending Houston Center
09:32PM 30.2164 -97.6581 179° South 148 170 1,000 -420 Descending Houston Center
09:34PM 30.1945 -97.6699 221° Southwest  Level Estimated